sensor_id;sensor_type;location;lat;lon;timestamp;P1;durP1;ratioP1;P2;durP2;ratioP2
41077;SDS011;26823;42.662;23.352;2022-11-18T00:01:44;24.30;;;12.48;;
41077;SDS011;26823;42.662;23.352;2022-11-18T00:04:10;23.23;;;12.93;;
41077;SDS011;26823;42.662;23.352;2022-11-18T00:06:35;20.70;;;12.27;;
41077;SDS011;26823;42.662;23.352;2022-11-18T00:09:01;20.45;;;12.32;;
41077;SDS011;26823;42.662;23.352;2022-11-18T00:11:29;21.58;;;12.38;;
41077;SDS011;26823;42.662;23.352;2022-11-18T00:14:14;22.85;;;13.70;;
41077;SDS011;26823;42.662;23.352;2022-11-18T00:19:11;19.05;;;12.82;;
41077;SDS011;26823;42.662;23.352;2022-11-18T00:21:36;22.35;;;12.45;;
41077;SDS011;26823;42.662;23.352;2022-11-18T00:24:02;23.30;;;12.77;;
41077;SDS011;26823;42.662;23.352;2022-11-18T00:26:27;23.55;;;12.80;;
41077;SDS011;26823;42.662;23.352;2022-11-18T00:28:52;23.08;;;13.98;;
41077;SDS011;26823;42.662;23.352;2022-11-18T00:31:18;22.95;;;12.85;;
41077;SDS011;26823;42.662;23.352;2022-11-18T00:33:43;23.38;;;12.98;;
41077;SDS011;26823;42.662;23.352;2022-11-18T00:36:10;19.75;;;12.70;;
41077;SDS011;26823;42.662;23.352;2022-11-18T00:38:36;21.63;;;12.77;;
41077;SDS011;26823;42.662;23.352;2022-11-18T00:41:03;24.88;;;13.15;;
41077;SDS011;26823;42.662;23.352;2022-11-18T00:43:33;19.42;;;12.02;;
41077;SDS011;26823;42.662;23.352;2022-11-18T00:46:00;20.50;;;12.18;;
41077;SDS011;26823;42.662;23.352;2022-11-18T00:48:26;22.17;;;12.75;;
41077;SDS011;26823;42.662;23.352;2022-11-18T00:50:56;22.98;;;13.32;;
41077;SDS011;26823;42.662;23.352;2022-11-18T00:53:23;24.85;;;12.43;;
41077;SDS011;26823;42.662;23.352;2022-11-18T00:55:50;18.58;;;12.30;;
41077;SDS011;26823;42.662;23.352;2022-11-18T00:58:16;18.80;;;12.10;;
41077;SDS011;26823;42.662;23.352;2022-11-18T01:00:45;17.73;;;11.50;;
41077;SDS011;26823;42.662;23.352;2022-11-18T01:03:16;15.80;;;11.57;;
41077;SDS011;26823;42.662;23.352;2022-11-18T01:05:43;21.73;;;12.07;;
41077;SDS011;26823;42.662;23.352;2022-11-18T01:08:09;25.23;;;13.13;;
41077;SDS011;26823;42.662;23.352;2022-11-18T01:10:36;18.60;;;11.63;;
41077;SDS011;26823;42.662;23.352;2022-11-18T01:13:02;19.20;;;11.68;;
41077;SDS011;26823;42.662;23.352;2022-11-18T01:15:44;21.80;;;12.07;;
41077;SDS011;26823;42.662;23.352;2022-11-18T01:18:18;24.80;;;13.13;;
41077;SDS011;26823;42.662;23.352;2022-11-18T01:20:46;19.33;;;11.55;;
41077;SDS011;26823;42.662;23.352;2022-11-18T01:23:12;24.10;;;12.55;;
41077;SDS011;26823;42.662;23.352;2022-11-18T01:25:39;22.50;;;11.95;;
41077;SDS011;26823;42.662;23.352;2022-11-18T01:28:05;18.33;;;11.98;;
41077;SDS011;26823;42.662;23.352;2022-11-18T01:30:34;19.92;;;12.63;;
41077;SDS011;26823;42.662;23.352;2022-11-18T01:33:02;16.08;;;11.60;;
41077;SDS011;26823;42.662;23.352;2022-11-18T01:35:28;24.50;;;11.70;;
41077;SDS011;26823;42.662;23.352;2022-11-18T01:37:58;21.65;;;12.23;;
41077;SDS011;26823;42.662;23.352;2022-11-18T01:40:25;23.70;;;12.25;;
41077;SDS011;26823;42.662;23.352;2022-11-18T01:42:53;19.38;;;11.93;;
41077;SDS011;26823;42.662;23.352;2022-11-18T01:45:20;17.20;;;11.63;;
41077;SDS011;26823;42.662;23.352;2022-11-18T01:47:54;19.27;;;11.82;;
41077;SDS011;26823;42.662;23.352;2022-11-18T01:50:27;22.50;;;11.68;;
41077;SDS011;26823;42.662;23.352;2022-11-18T01:52:54;22.50;;;13.20;;
41077;SDS011;26823;42.662;23.352;2022-11-18T01:55:25;22.40;;;12.82;;
41077;SDS011;26823;42.662;23.352;2022-11-18T01:57:55;21.27;;;12.38;;
41077;SDS011;26823;42.662;23.352;2022-11-18T02:00:27;22.20;;;11.68;;
41077;SDS011;26823;42.662;23.352;2022-11-18T02:02:53;18.23;;;12.00;;
41077;SDS011;26823;42.662;23.352;2022-11-18T02:05:19;17.55;;;10.70;;
41077;SDS011;26823;42.662;23.352;2022-11-18T02:07:46;19.25;;;12.20;;
41077;SDS011;26823;42.662;23.352;2022-11-18T02:10:19;28.85;;;14.25;;
41077;SDS011;26823;42.662;23.352;2022-11-18T02:12:47;19.08;;;12.25;;
41077;SDS011;26823;42.662;23.352;2022-11-18T02:15:15;28.98;;;13.48;;
41077;SDS011;26823;42.662;23.352;2022-11-18T02:17:52;23.52;;;13.98;;
41077;SDS011;26823;42.662;23.352;2022-11-18T02:20:28;28.58;;;14.63;;
41077;SDS011;26823;42.662;23.352;2022-11-18T02:31:49;17.85;;;12.30;;
41077;SDS011;26823;42.662;23.352;2022-11-18T02:37:35;22.02;;;12.60;;
41077;SDS011;26823;42.662;23.352;2022-11-18T02:42:44;24.15;;;12.68;;
41077;SDS011;26823;42.662;23.352;2022-11-18T02:45:14;24.20;;;13.30;;
41077;SDS011;26823;42.662;23.352;2022-11-18T02:47:44;22.23;;;14.13;;
41077;SDS011;26823;42.662;23.352;2022-11-18T02:50:13;26.58;;;15.18;;
41077;SDS011;26823;42.662;23.352;2022-11-18T02:52:42;26.90;;;13.77;;
41077;SDS011;26823;42.662;23.352;2022-11-18T02:55:10;22.60;;;13.68;;
41077;SDS011;26823;42.662;23.352;2022-11-18T02:57:38;19.25;;;13.20;;
41077;SDS011;26823;42.662;23.352;2022-11-18T03:00:06;24.00;;;12.70;;
41077;SDS011;26823;42.662;23.352;2022-11-18T03:02:43;24.88;;;13.68;;
41077;SDS011;26823;42.662;23.352;2022-11-18T03:05:12;22.13;;;13.00;;
41077;SDS011;26823;42.662;23.352;2022-11-18T03:07:45;21.80;;;13.35;;
41077;SDS011;26823;42.662;23.352;2022-11-18T03:10:15;27.02;;;13.20;;
41077;SDS011;26823;42.662;23.352;2022-11-18T03:15:34;24.50;;;12.90;;
41077;SDS011;26823;42.662;23.352;2022-11-18T03:18:15;23.27;;;13.07;;
41077;SDS011;26823;42.662;23.352;2022-11-18T03:21:05;19.25;;;12.05;;
41077;SDS011;26823;42.662;23.352;2022-11-18T03:23:43;19.83;;;12.70;;
41077;SDS011;26823;42.662;23.352;2022-11-18T03:26:11;17.60;;;11.70;;
41077;SDS011;26823;42.662;23.352;2022-11-18T03:29:04;24.02;;;13.23;;
41077;SDS011;26823;42.662;23.352;2022-11-18T03:31:35;22.23;;;13.80;;
41077;SDS011;26823;42.662;23.352;2022-11-18T03:34:07;21.45;;;13.73;;
41077;SDS011;26823;42.662;23.352;2022-11-18T03:36:55;21.40;;;13.02;;
41077;SDS011;26823;42.662;23.352;2022-11-18T03:39:22;22.70;;;13.45;;
41077;SDS011;26823;42.662;23.352;2022-11-18T03:41:52;22.08;;;13.82;;
41077;SDS011;26823;42.662;23.352;2022-11-18T03:44:31;22.55;;;13.40;;
41077;SDS011;26823;42.662;23.352;2022-11-18T03:47:11;20.38;;;12.75;;
41077;SDS011;26823;42.662;23.352;2022-11-18T03:49:53;23.67;;;12.85;;
41077;SDS011;26823;42.662;23.352;2022-11-18T03:52:28;24.83;;;13.52;;
41077;SDS011;26823;42.662;23.352;2022-11-18T03:54:57;19.97;;;12.83;;
41077;SDS011;26823;42.662;23.352;2022-11-18T03:57:31;21.60;;;12.85;;
41077;SDS011;26823;42.662;23.352;2022-11-18T04:00:07;18.55;;;12.55;;
41077;SDS011;26823;42.662;23.352;2022-11-18T04:02:35;19.80;;;13.05;;
41077;SDS011;26823;42.662;23.352;2022-11-18T04:05:02;24.00;;;14.32;;
41077;SDS011;26823;42.662;23.352;2022-11-18T04:07:32;28.25;;;14.02;;
41077;SDS011;26823;42.662;23.352;2022-11-18T04:12:43;24.40;;;12.98;;
41077;SDS011;26823;42.662;23.352;2022-11-18T04:15:21;23.42;;;12.70;;
41077;SDS011;26823;42.662;23.352;2022-11-18T04:17:48;27.23;;;14.13;;
41077;SDS011;26823;42.662;23.352;2022-11-18T04:20:15;22.27;;;13.85;;
41077;SDS011;26823;42.662;23.352;2022-11-18T04:22:42;33.20;;;16.02;;
41077;SDS011;26823;42.662;23.352;2022-11-18T04:25:08;29.92;;;15.52;;
41077;SDS011;26823;42.662;23.352;2022-11-18T04:27:33;30.85;;;16.35;;
41077;SDS011;26823;42.662;23.352;2022-11-18T04:29:59;46.22;;;18.25;;
41077;SDS011;26823;42.662;23.352;2022-11-18T04:32:24;35.70;;;16.95;;
41077;SDS011;26823;42.662;23.352;2022-11-18T04:34:50;48.63;;;19.98;;
41077;SDS011;26823;42.662;23.352;2022-11-18T04:37:15;54.25;;;20.30;;
41077;SDS011;26823;42.662;23.352;2022-11-18T04:39:40;62.47;;;20.60;;
41077;SDS011;26823;42.662;23.352;2022-11-18T04:42:06;67.68;;;23.15;;
41077;SDS011;26823;42.662;23.352;2022-11-18T04:44:37;64.85;;;21.77;;
41077;SDS011;26823;42.662;23.352;2022-11-18T04:47:10;85.32;;;25.02;;
41077;SDS011;26823;42.662;23.352;2022-11-18T04:49:35;89.47;;;25.42;;
41077;SDS011;26823;42.662;23.352;2022-11-18T04:52:01;67.88;;;24.23;;
41077;SDS011;26823;42.662;23.352;2022-11-18T04:54:27;70.95;;;27.17;;
41077;SDS011;26823;42.662;23.352;2022-11-18T04:56:53;66.05;;;27.80;;
41077;SDS011;26823;42.662;23.352;2022-11-18T04:59:26;89.82;;;27.48;;
41077;SDS011;26823;42.662;23.352;2022-11-18T05:01:53;79.70;;;27.15;;
41077;SDS011;26823;42.662;23.352;2022-11-18T05:04:19;52.83;;;28.63;;
41077;SDS011;26823;42.662;23.352;2022-11-18T05:06:47;61.58;;;27.90;;
41077;SDS011;26823;42.662;23.352;2022-11-18T05:09:12;135.23;;;27.15;;
41077;SDS011;26823;42.662;23.352;2022-11-18T05:11:39;117.00;;;28.60;;
41077;SDS011;26823;42.662;23.352;2022-11-18T05:14:27;77.13;;;26.30;;
41077;SDS011;26823;42.662;23.352;2022-11-18T05:16:54;68.07;;;24.75;;
41077;SDS011;26823;42.662;23.352;2022-11-18T05:19:20;66.80;;;25.60;;
41077;SDS011;26823;42.662;23.352;2022-11-18T05:21:46;73.47;;;24.83;;
41077;SDS011;26823;42.662;23.352;2022-11-18T05:24:12;55.40;;;25.95;;
41077;SDS011;26823;42.662;23.352;2022-11-18T05:26:37;63.80;;;25.65;;
41077;SDS011;26823;42.662;23.352;2022-11-18T05:29:03;88.07;;;26.52;;
41077;SDS011;26823;42.662;23.352;2022-11-18T05:31:29;80.50;;;25.90;;
41077;SDS011;26823;42.662;23.352;2022-11-18T05:33:54;49.08;;;23.88;;
41077;SDS011;26823;42.662;23.352;2022-11-18T05:36:20;83.00;;;26.73;;
41077;SDS011;26823;42.662;23.352;2022-11-18T05:38:46;145.70;;;26.10;;
41077;SDS011;26823;42.662;23.352;2022-11-18T05:41:12;170.80;;;26.20;;
41077;SDS011;26823;42.662;23.352;2022-11-18T05:44:00;77.82;;;26.85;;
41077;SDS011;26823;42.662;23.352;2022-11-18T05:46:26;70.65;;;26.23;;
41077;SDS011;26823;42.662;23.352;2022-11-18T05:48:53;101.95;;;26.58;;
41077;SDS011;26823;42.662;23.352;2022-11-18T05:51:18;55.40;;;23.98;;
41077;SDS011;26823;42.662;23.352;2022-11-18T05:53:44;61.45;;;24.73;;
41077;SDS011;26823;42.662;23.352;2022-11-18T05:58:46;101.97;;;25.02;;
41077;SDS011;26823;42.662;23.352;2022-11-18T06:01:13;52.80;;;25.25;;
41077;SDS011;26823;42.662;23.352;2022-11-18T06:03:42;61.47;;;25.42;;
41077;SDS011;26823;42.662;23.352;2022-11-18T06:06:08;131.00;;;24.33;;
41077;SDS011;26823;42.662;23.352;2022-11-18T06:08:36;79.88;;;23.08;;
41077;SDS011;26823;42.662;23.352;2022-11-18T06:11:09;128.50;;;20.73;;
41077;SDS011;26823;42.662;23.352;2022-11-18T06:13:40;126.05;;;20.27;;
41077;SDS011;26823;42.662;23.352;2022-11-18T06:16:14;106.65;;;20.05;;
41077;SDS011;26823;42.662;23.352;2022-11-18T06:18:42;155.35;;;20.23;;
41077;SDS011;26823;42.662;23.352;2022-11-18T06:21:08;120.68;;;19.67;;
41077;SDS011;26823;42.662;23.352;2022-11-18T06:23:34;120.10;;;22.38;;
41077;SDS011;26823;42.662;23.352;2022-11-18T06:26:00;91.15;;;22.92;;
41077;SDS011;26823;42.662;23.352;2022-11-18T06:28:26;61.67;;;21.23;;
41077;SDS011;26823;42.662;23.352;2022-11-18T06:30:53;61.90;;;22.73;;
41077;SDS011;26823;42.662;23.352;2022-11-18T06:33:19;107.07;;;25.20;;
41077;SDS011;26823;42.662;23.352;2022-11-18T06:35:44;79.93;;;23.95;;
41077;SDS011;26823;42.662;23.352;2022-11-18T06:38:09;81.88;;;24.15;;
41077;SDS011;26823;42.662;23.352;2022-11-18T06:40:35;64.82;;;23.45;;
41077;SDS011;26823;42.662;23.352;2022-11-18T06:43:08;82.22;;;23.73;;
41077;SDS011;26823;42.662;23.352;2022-11-18T06:45:52;106.90;;;21.58;;
41077;SDS011;26823;42.662;23.352;2022-11-18T06:48:36;92.68;;;20.08;;
41077;SDS011;26823;42.662;23.352;2022-11-18T06:51:05;55.90;;;18.60;;
41077;SDS011;26823;42.662;23.352;2022-11-18T06:53:32;96.25;;;22.13;;
41077;SDS011;26823;42.662;23.352;2022-11-18T06:56:01;89.50;;;20.85;;
41077;SDS011;26823;42.662;23.352;2022-11-18T06:58:27;106.82;;;21.52;;
41077;SDS011;26823;42.662;23.352;2022-11-18T07:00:53;86.63;;;22.15;;
41077;SDS011;26823;42.662;23.352;2022-11-18T07:03:18;64.80;;;21.52;;
41077;SDS011;26823;42.662;23.352;2022-11-18T07:05:43;101.97;;;22.98;;
41077;SDS011;26823;42.662;23.352;2022-11-18T07:08:09;62.03;;;22.50;;
41077;SDS011;26823;42.662;23.352;2022-11-18T07:10:34;62.80;;;22.25;;
41077;SDS011;26823;42.662;23.352;2022-11-18T07:13:00;145.25;;;22.98;;
41077;SDS011;26823;42.662;23.352;2022-11-18T07:15:25;173.35;;;19.27;;
41077;SDS011;26823;42.662;23.352;2022-11-18T07:17:50;68.85;;;20.08;;
41077;SDS011;26823;42.662;23.352;2022-11-18T07:20:16;115.82;;;18.75;;
41077;SDS011;26823;42.662;23.352;2022-11-18T07:22:41;79.57;;;17.55;;
41077;SDS011;26823;42.662;23.352;2022-11-18T07:25:07;97.82;;;16.90;;
41077;SDS011;26823;42.662;23.352;2022-11-18T07:27:32;56.75;;;15.32;;
41077;SDS011;26823;42.662;23.352;2022-11-18T07:29:58;79.10;;;15.80;;
41077;SDS011;26823;42.662;23.352;2022-11-18T07:32:23;48.40;;;15.68;;
41077;SDS011;26823;42.662;23.352;2022-11-18T07:34:48;73.32;;;16.50;;
41077;SDS011;26823;42.662;23.352;2022-11-18T07:37:14;47.97;;;16.48;;
41077;SDS011;26823;42.662;23.352;2022-11-18T07:39:39;62.78;;;17.42;;
41077;SDS011;26823;42.662;23.352;2022-11-18T07:42:05;96.05;;;18.58;;
41077;SDS011;26823;42.662;23.352;2022-11-18T07:44:30;84.65;;;19.02;;
41077;SDS011;26823;42.662;23.352;2022-11-18T07:46:55;104.68;;;19.42;;
41077;SDS011;26823;42.662;23.352;2022-11-18T07:49:21;98.75;;;18.67;;
41077;SDS011;26823;42.662;23.352;2022-11-18T07:51:46;113.13;;;19.85;;
41077;SDS011;26823;42.662;23.352;2022-11-18T07:54:12;73.20;;;19.83;;
41077;SDS011;26823;42.662;23.352;2022-11-18T07:56:41;62.35;;;18.83;;
41077;SDS011;26823;42.662;23.352;2022-11-18T07:59:06;82.47;;;19.00;;
41077;SDS011;26823;42.662;23.352;2022-11-18T08:01:32;56.10;;;18.50;;
41077;SDS011;26823;42.662;23.352;2022-11-18T08:04:08;43.88;;;16.90;;
41077;SDS011;26823;42.662;23.352;2022-11-18T08:06:35;51.15;;;15.77;;
41077;SDS011;26823;42.662;23.352;2022-11-18T08:09:01;48.90;;;17.27;;
41077;SDS011;26823;42.662;23.352;2022-11-18T08:11:34;44.67;;;16.80;;
41077;SDS011;26823;42.662;23.352;2022-11-18T08:13:59;50.53;;;19.92;;
41077;SDS011;26823;42.662;23.352;2022-11-18T08:16:25;47.17;;;18.88;;
41077;SDS011;26823;42.662;23.352;2022-11-18T08:18:51;41.92;;;18.45;;
41077;SDS011;26823;42.662;23.352;2022-11-18T08:21:18;53.88;;;18.70;;
41077;SDS011;26823;42.662;23.352;2022-11-18T08:23:48;58.33;;;20.77;;
41077;SDS011;26823;42.662;23.352;2022-11-18T08:26:15;47.65;;;20.02;;
41077;SDS011;26823;42.662;23.352;2022-11-18T08:28:40;55.95;;;21.00;;
41077;SDS011;26823;42.662;23.352;2022-11-18T08:31:14;54.28;;;20.88;;
41077;SDS011;26823;42.662;23.352;2022-11-18T08:33:45;65.32;;;20.48;;
41077;SDS011;26823;42.662;23.352;2022-11-18T08:36:20;50.55;;;21.08;;
41077;SDS011;26823;42.662;23.352;2022-11-18T08:38:47;67.07;;;21.70;;
41077;SDS011;26823;42.662;23.352;2022-11-18T08:41:13;49.75;;;20.70;;
41077;SDS011;26823;42.662;23.352;2022-11-18T08:44:00;58.08;;;20.73;;
41077;SDS011;26823;42.662;23.352;2022-11-18T08:46:26;61.28;;;21.58;;
41077;SDS011;26823;42.662;23.352;2022-11-18T08:48:52;52.17;;;20.98;;
41077;SDS011;26823;42.662;23.352;2022-11-18T08:51:18;54.22;;;18.73;;
41077;SDS011;26823;42.662;23.352;2022-11-18T08:53:44;55.00;;;20.83;;
41077;SDS011;26823;42.662;23.352;2022-11-18T08:56:13;50.83;;;21.40;;
41077;SDS011;26823;42.662;23.352;2022-11-18T08:58:41;47.00;;;20.10;;
41077;SDS011;26823;42.662;23.352;2022-11-18T09:01:07;57.70;;;21.80;;
41077;SDS011;26823;42.662;23.352;2022-11-18T09:03:32;50.45;;;19.45;;
41077;SDS011;26823;42.662;23.352;2022-11-18T09:06:11;53.05;;;21.58;;
41077;SDS011;26823;42.662;23.352;2022-11-18T09:08:44;58.55;;;21.40;;
41077;SDS011;26823;42.662;23.352;2022-11-18T09:11:14;52.92;;;21.13;;
41077;SDS011;26823;42.662;23.352;2022-11-18T09:13:41;59.92;;;21.75;;
41077;SDS011;26823;42.662;23.352;2022-11-18T09:16:06;55.80;;;22.10;;
41077;SDS011;26823;42.662;23.352;2022-11-18T09:18:32;56.78;;;23.60;;
41077;SDS011;26823;42.662;23.352;2022-11-18T09:21:02;56.95;;;22.75;;
41077;SDS011;26823;42.662;23.352;2022-11-18T09:23:31;59.95;;;23.30;;
41077;SDS011;26823;42.662;23.352;2022-11-18T09:26:01;60.35;;;24.45;;
41077;SDS011;26823;42.662;23.352;2022-11-18T09:28:27;60.42;;;24.48;;
41077;SDS011;26823;42.662;23.352;2022-11-18T09:30:53;48.60;;;21.90;;
41077;SDS011;26823;42.662;23.352;2022-11-18T09:33:19;47.40;;;21.35;;
41077;SDS011;26823;42.662;23.352;2022-11-18T09:35:45;49.72;;;21.58;;
41077;SDS011;26823;42.662;23.352;2022-11-18T09:38:10;49.85;;;21.48;;
41077;SDS011;26823;42.662;23.352;2022-11-18T09:40:38;50.15;;;24.27;;
41077;SDS011;26823;42.662;23.352;2022-11-18T09:43:20;53.47;;;22.17;;
41077;SDS011;26823;42.662;23.352;2022-11-18T09:45:54;42.70;;;21.05;;
41077;SDS011;26823;42.662;23.352;2022-11-18T09:48:24;50.10;;;21.38;;
41077;SDS011;26823;42.662;23.352;2022-11-18T09:51:10;49.97;;;22.42;;
41077;SDS011;26823;42.662;23.352;2022-11-18T09:53:38;48.28;;;22.15;;
41077;SDS011;26823;42.662;23.352;2022-11-18T09:56:14;50.53;;;23.50;;
41077;SDS011;26823;42.662;23.352;2022-11-18T09:58:40;53.28;;;24.88;;
41077;SDS011;26823;42.662;23.352;2022-11-18T10:01:13;47.08;;;22.67;;
41077;SDS011;26823;42.662;23.352;2022-11-18T10:03:43;55.75;;;26.95;;
41077;SDS011;26823;42.662;23.352;2022-11-18T10:11:15;59.65;;;24.48;;
41077;SDS011;26823;42.662;23.352;2022-11-18T10:19:15;48.35;;;21.85;;
41077;SDS011;26823;42.662;23.352;2022-11-18T10:24:47;43.28;;;21.40;;
41077;SDS011;26823;42.662;23.352;2022-11-18T10:27:15;46.80;;;23.67;;
41077;SDS011;26823;42.662;23.352;2022-11-18T10:29:42;42.88;;;23.83;;
41077;SDS011;26823;42.662;23.352;2022-11-18T10:32:13;41.67;;;22.23;;
41077;SDS011;26823;42.662;23.352;2022-11-18T10:34:47;46.80;;;23.08;;
41077;SDS011;26823;42.662;23.352;2022-11-18T10:39:52;35.50;;;21.58;;
41077;SDS011;26823;42.662;23.352;2022-11-18T10:42:29;39.53;;;21.92;;
41077;SDS011;26823;42.662;23.352;2022-11-18T10:45:16;35.78;;;21.45;;
41077;SDS011;26823;42.662;23.352;2022-11-18T10:55:57;37.75;;;21.65;;
41077;SDS011;26823;42.662;23.352;2022-11-18T10:58:29;39.80;;;20.25;;
41077;SDS011;26823;42.662;23.352;2022-11-18T11:01:06;31.65;;;19.33;;
41077;SDS011;26823;42.662;23.352;2022-11-18T11:03:39;35.00;;;19.63;;
41077;SDS011;26823;42.662;23.352;2022-11-18T11:08:46;33.90;;;19.40;;
41077;SDS011;26823;42.662;23.352;2022-11-18T11:11:24;35.92;;;19.13;;
41077;SDS011;26823;42.662;23.352;2022-11-18T11:13:51;38.88;;;19.55;;
41077;SDS011;26823;42.662;23.352;2022-11-18T11:18:52;32.58;;;17.77;;
41077;SDS011;26823;42.662;23.352;2022-11-18T11:21:24;34.08;;;20.02;;
41077;SDS011;26823;42.662;23.352;2022-11-18T11:23:51;36.35;;;20.20;;
41077;SDS011;26823;42.662;23.352;2022-11-18T11:26:37;36.80;;;21.63;;
41077;SDS011;26823;42.662;23.352;2022-11-18T11:32:13;35.60;;;18.67;;
41077;SDS011;26823;42.662;23.352;2022-11-18T11:43:44;44.05;;;20.85;;
41077;SDS011;26823;42.662;23.352;2022-11-18T11:46:26;46.63;;;22.00;;
41077;SDS011;26823;42.662;23.352;2022-11-18T12:07:44;28.92;;;15.68;;
41077;SDS011;26823;42.662;23.352;2022-11-18T12:26:55;30.23;;;13.13;;
41077;SDS011;26823;42.662;23.352;2022-11-18T12:29:22;22.48;;;13.40;;
41077;SDS011;26823;42.662;23.352;2022-11-18T12:32:33;24.75;;;13.23;;
41077;SDS011;26823;42.662;23.352;2022-11-18T12:34:48;21.58;;;12.60;;
41077;SDS011;26823;42.662;23.352;2022-11-18T12:39:56;32.50;;;13.18;;
41077;SDS011;26823;42.662;23.352;2022-11-18T12:42:36;22.30;;;12.15;;
41077;SDS011;26823;42.662;23.352;2022-11-18T12:50:53;25.58;;;13.32;;
41077;SDS011;26823;42.662;23.352;2022-11-18T12:58:45;24.58;;;12.63;;
41077;SDS011;26823;42.662;23.352;2022-11-18T13:01:13;17.52;;;12.30;;
41077;SDS011;26823;42.662;23.352;2022-11-18T13:03:42;17.40;;;9.90;;
41077;SDS011;26823;42.662;23.352;2022-11-18T13:09:03;21.55;;;11.50;;
41077;SDS011;26823;42.662;23.352;2022-11-18T13:11:45;18.30;;;10.60;;
41077;SDS011;26823;42.662;23.352;2022-11-18T13:14:17;17.00;;;10.07;;
41077;SDS011;26823;42.662;23.352;2022-11-18T13:22:58;16.27;;;8.88;;
41077;SDS011;26823;42.662;23.352;2022-11-18T13:25:43;9.73;;;5.13;;
41077;SDS011;26823;42.662;23.352;2022-11-18T13:28:34;9.25;;;5.70;;
41077;SDS011;26823;42.662;23.352;2022-11-18T13:33:46;12.45;;;6.15;;
41077;SDS011;26823;42.662;23.352;2022-11-18T13:36:21;10.27;;;4.47;;
41077;SDS011;26823;42.662;23.352;2022-11-18T13:38:55;10.20;;;4.97;;
41077;SDS011;26823;42.662;23.352;2022-11-18T13:41:32;8.45;;;5.20;;
41077;SDS011;26823;42.662;23.352;2022-11-18T13:46:39;12.18;;;5.75;;
41077;SDS011;26823;42.662;23.352;2022-11-18T13:49:09;11.18;;;5.68;;
41077;SDS011;26823;42.662;23.352;2022-11-18T13:51:38;8.57;;;3.17;;
41077;SDS011;26823;42.662;23.352;2022-11-18T13:54:04;4.28;;;3.20;;
41077;SDS011;26823;42.662;23.352;2022-11-18T13:56:29;8.93;;;3.83;;
41077;SDS011;26823;42.662;23.352;2022-11-18T13:58:58;7.38;;;4.25;;
41077;SDS011;26823;42.662;23.352;2022-11-18T14:01:30;12.35;;;6.45;;
41077;SDS011;26823;42.662;23.352;2022-11-18T14:04:01;11.27;;;5.65;;
41077;SDS011;26823;42.662;23.352;2022-11-18T14:06:29;10.93;;;5.70;;
41077;SDS011;26823;42.662;23.352;2022-11-18T14:09:03;10.02;;;6.00;;
41077;SDS011;26823;42.662;23.352;2022-11-18T14:11:35;10.90;;;5.88;;
41077;SDS011;26823;42.662;23.352;2022-11-18T14:14:02;12.13;;;5.95;;
41077;SDS011;26823;42.662;23.352;2022-11-18T14:16:30;14.55;;;6.53;;
41077;SDS011;26823;42.662;23.352;2022-11-18T14:19:04;13.20;;;6.50;;
41077;SDS011;26823;42.662;23.352;2022-11-18T14:21:31;11.02;;;5.43;;
41077;SDS011;26823;42.662;23.352;2022-11-18T14:23:59;6.35;;;3.70;;
41077;SDS011;26823;42.662;23.352;2022-11-18T14:26:25;7.63;;;5.03;;
41077;SDS011;26823;42.662;23.352;2022-11-18T14:28:54;6.97;;;4.75;;
41077;SDS011;26823;42.662;23.352;2022-11-18T14:31:28;9.68;;;3.75;;
41077;SDS011;26823;42.662;23.352;2022-11-18T14:36:49;9.45;;;5.10;;
41077;SDS011;26823;42.662;23.352;2022-11-18T14:39:26;4.57;;;2.53;;
41077;SDS011;26823;42.662;23.352;2022-11-18T14:41:55;7.25;;;2.92;;
41077;SDS011;26823;42.662;23.352;2022-11-18T14:44:23;6.10;;;3.40;;
41077;SDS011;26823;42.662;23.352;2022-11-18T14:46:53;3.47;;;2.72;;
41077;SDS011;26823;42.662;23.352;2022-11-18T14:49:23;8.02;;;2.97;;
41077;SDS011;26823;42.662;23.352;2022-11-18T14:51:50;3.00;;;2.15;;
41077;SDS011;26823;42.662;23.352;2022-11-18T14:54:17;5.50;;;2.50;;
41077;SDS011;26823;42.662;23.352;2022-11-18T14:56:44;4.00;;;1.85;;
41077;SDS011;26823;42.662;23.352;2022-11-18T14:59:12;6.25;;;2.53;;
41077;SDS011;26823;42.662;23.352;2022-11-18T15:01:38;5.22;;;3.00;;
41077;SDS011;26823;42.662;23.352;2022-11-18T15:04:04;6.15;;;2.70;;
41077;SDS011;26823;42.662;23.352;2022-11-18T15:06:30;2.20;;;1.58;;
41077;SDS011;26823;42.662;23.352;2022-11-18T15:08:55;3.85;;;1.45;;
41077;SDS011;26823;42.662;23.352;2022-11-18T15:11:21;4.07;;;1.65;;
41077;SDS011;26823;42.662;23.352;2022-11-18T15:13:46;5.10;;;2.08;;
41077;SDS011;26823;42.662;23.352;2022-11-18T15:16:19;3.30;;;1.50;;
41077;SDS011;26823;42.662;23.352;2022-11-18T15:18:50;2.13;;;1.88;;
41077;SDS011;26823;42.662;23.352;2022-11-18T15:21:17;3.22;;;1.70;;
41077;SDS011;26823;42.662;23.352;2022-11-18T15:23:43;3.47;;;1.42;;
41077;SDS011;26823;42.662;23.352;2022-11-18T15:26:19;4.18;;;2.05;;
41077;SDS011;26823;42.662;23.352;2022-11-18T15:28:47;8.00;;;2.88;;
41077;SDS011;26823;42.662;23.352;2022-11-18T15:31:14;2.20;;;1.60;;
41077;SDS011;26823;42.662;23.352;2022-11-18T15:33:41;5.18;;;1.98;;
41077;SDS011;26823;42.662;23.352;2022-11-18T15:36:11;2.17;;;1.30;;
41077;SDS011;26823;42.662;23.352;2022-11-18T15:38:39;3.58;;;2.63;;
41077;SDS011;26823;42.662;23.352;2022-11-18T15:41:05;4.53;;;3.25;;
41077;SDS011;26823;42.662;23.352;2022-11-18T15:43:31;3.10;;;2.05;;
41077;SDS011;26823;42.662;23.352;2022-11-18T15:45:56;3.42;;;1.50;;
41077;SDS011;26823;42.662;23.352;2022-11-18T15:48:22;1.42;;;1.25;;
41077;SDS011;26823;42.662;23.352;2022-11-18T15:50:48;3.15;;;1.40;;
41077;SDS011;26823;42.662;23.352;2022-11-18T15:53:13;1.85;;;1.67;;
41077;SDS011;26823;42.662;23.352;2022-11-18T15:55:39;2.30;;;1.58;;
41077;SDS011;26823;42.662;23.352;2022-11-18T15:58:04;2.78;;;2.10;;
41077;SDS011;26823;42.662;23.352;2022-11-18T16:00:29;4.07;;;2.42;;
41077;SDS011;26823;42.662;23.352;2022-11-18T16:02:55;2.58;;;2.20;;
41077;SDS011;26823;42.662;23.352;2022-11-18T16:05:20;3.63;;;1.95;;
41077;SDS011;26823;42.662;23.352;2022-11-18T16:07:45;4.28;;;2.90;;
41077;SDS011;26823;42.662;23.352;2022-11-18T16:10:12;4.25;;;2.83;;
41077;SDS011;26823;42.662;23.352;2022-11-18T16:12:55;3.40;;;2.40;;
41077;SDS011;26823;42.662;23.352;2022-11-18T16:15:21;8.10;;;2.78;;
41077;SDS011;26823;42.662;23.352;2022-11-18T16:18:05;4.50;;;2.60;;
41077;SDS011;26823;42.662;23.352;2022-11-18T16:20:30;3.78;;;2.67;;
41077;SDS011;26823;42.662;23.352;2022-11-18T16:22:56;8.23;;;5.38;;
41077;SDS011;26823;42.662;23.352;2022-11-18T16:25:22;8.35;;;4.32;;
41077;SDS011;26823;42.662;23.352;2022-11-18T16:27:48;7.55;;;3.70;;
41077;SDS011;26823;42.662;23.352;2022-11-18T16:30:13;6.07;;;3.63;;
41077;SDS011;26823;42.662;23.352;2022-11-18T16:32:58;6.55;;;2.63;;
41077;SDS011;26823;42.662;23.352;2022-11-18T16:35:24;5.13;;;2.35;;
41077;SDS011;26823;42.662;23.352;2022-11-18T16:37:51;2.30;;;1.77;;
41077;SDS011;26823;42.662;23.352;2022-11-18T16:40:18;3.63;;;1.95;;